Time;durP1;ratioP1;P1;durP2;ratioP2;P2;SDS_P1;SDS_P2;PMS_P1;PMS_P2;Temp;Humidity;BMP_temperature;BMP_pressure;BME280_temperature;BME280_humidity;BME280_pressure;Samples;Min_cycle;Max_cycle;Signal;HPM_P1;HPM_P2
2021/07/09 00:01:21;;;;;;;3.42;2.92;;;;;;;21.60;75.40;100278.00;4913272;28;96647;-82
2021/07/09 00:03:46;;;;;;;3.97;3.20;;;;;;;21.56;76.03;100288.06;4910590;28;97033;-81
2021/07/09 00:06:12;;;;;;;3.83;2.72;;;;;;;21.60;75.22;100272.66;4904824;28;98223;-82
2021/07/09 00:08:38;;;;;;;5.15;3.60;;;;;;;21.56;75.68;100269.38;4935791;28;98313;-82
2021/07/09 00:11:04;;;;;;;3.60;2.50;;;;;;;21.52;75.85;100251.03;4902107;28;96723;-82
2021/07/09 00:13:29;;;;;;;3.30;3.00;;;;;;;21.64;75.23;100268.75;4894638;28;97060;-82
2021/07/09 00:15:55;;;;;;;3.97;3.25;;;;;;;21.45;75.77;100262.22;4935761;28;97289;-82
2021/07/09 00:18:20;;;;;;;3.72;3.10;;;;;;;21.66;75.19;100259.63;4910094;28;98191;-81
2021/07/09 00:20:46;;;;;;;5.75;3.22;;;;;;;21.64;75.53;100266.06;4905308;28;97094;-82
2021/07/09 00:23:12;;;;;;;4.35;2.80;;;;;;;21.70;75.13;100269.13;4900085;28;96981;-82
2021/07/09 00:25:37;;;;;;;3.97;3.13;;;;;;;21.63;75.72;100261.72;4932448;28;98309;-82
2021/07/09 00:28:04;;;;;;;3.95;3.53;;;;;;;21.62;75.87;100252.00;4913500;28;101301;-82
2021/07/09 00:30:29;;;;;;;3.90;3.30;;;;;;;21.67;75.69;100248.00;4933037;28;97107;-82
2021/07/09 00:32:55;;;;;;;3.00;2.70;;;;;;;21.57;75.23;100232.84;4915287;28;96831;-82
2021/07/09 00:35:20;;;;;;;4.55;2.72;;;;;;;21.61;75.04;100242.28;4900479;28;98198;-82
2021/07/09 00:37:46;;;;;;;3.33;2.90;;;;;;;21.60;75.54;100246.78;4913363;28;98411;-82
2021/07/09 00:40:12;;;;;;;3.10;2.80;;;;;;;21.64;74.80;100244.69;4912825;28;97245;-82
2021/07/09 00:42:38;;;;;;;3.13;2.83;;;;;;;21.65;75.10;100252.59;4895429;28;96961;-82
2021/07/09 00:45:05;;;;;;;4.82;2.97;;;;;;;21.52;75.26;100213.66;4915332;28;101958;-82
2021/07/09 00:47:30;;;;;;;4.70;3.33;;;;;;;21.70;75.17;100230.88;4930510;28;101175;-82
2021/07/09 00:49:56;;;;;;;5.68;3.35;;;;;;;21.60;75.76;100235.25;4884842;28;96795;-82
2021/07/09 00:52:21;;;;;;;4.25;2.88;;;;;;;21.64;75.82;100229.56;4912754;28;97103;-82
2021/07/09 00:54:47;;;;;;;3.60;3.30;;;;;;;21.64;75.60;100202.84;4900544;28;101454;-82
2021/07/09 00:57:13;;;;;;;3.92;3.47;;;;;;;21.45;76.16;100195.47;4909504;28;101959;-81
2021/07/09 00:59:38;;;;;;;4.50;3.80;;;;;;;21.52;75.98;100211.00;4913129;28;96727;-82
2021/07/09 01:02:04;;;;;;;4.78;4.28;;;;;;;21.61;75.69;100218.25;4892054;28;97014;-82
2021/07/09 01:04:30;;;;;;;5.60;4.70;;;;;;;21.56;76.00;100209.78;4899491;28;101358;-81
2021/07/09 01:06:56;;;;;;;7.30;4.80;;;;;;;21.71;75.45;100216.53;4899025;28;101545;-82
2021/07/09 01:09:21;;;;;;;12.25;5.75;;;;;;;21.69;75.49;100200.63;4912515;28;97157;-82
2021/07/09 01:11:50;;;;;;;6.78;5.57;;;;;;;21.74;75.63;100202.91;4910117;28;96902;-82
2021/07/09 01:14:19;;;;;;;7.63;6.18;;;;;;;21.70;75.52;100194.31;4911296;28;98610;-82
2021/07/09 01:16:46;;;;;;;7.07;6.38;;;;;;;21.70;75.49;100196.16;4907617;28;101348;-81
2021/07/09 01:19:14;;;;;;;9.07;6.15;;;;;;;21.68;75.17;100177.56;4885552;28;97090;-82
2021/07/09 01:21:41;;;;;;;9.75;6.68;;;;;;;21.69;75.53;100178.41;4880834;28;97507;-81
2021/07/09 01:24:08;;;;;;;9.38;6.30;;;;;;;21.61;75.51;100171.03;4904367;28;101484;-82
2021/07/09 01:26:35;;;;;;;10.65;6.10;;;;;;;21.73;75.13;100163.84;4884118;28;101666;-82
2021/07/09 01:29:00;;;;;;;9.48;6.40;;;;;;;21.68;75.44;100160.69;4921761;28;96682;-82
2021/07/09 01:31:26;;;;;;;8.68;6.57;;;;;;;21.57;75.62;100158.06;4884673;28;97070;-82
2021/07/09 01:33:51;;;;;;;10.88;6.50;;;;;;;21.45;75.99;100138.56;4922187;28;98482;-81
2021/07/09 01:36:18;;;;;;;8.98;6.90;;;;;;;21.53;76.38;100138.78;4914246;28;101247;-82
2021/07/09 01:38:44;;;;;;;10.05;6.80;;;;;;;21.39;76.51;100115.03;4906754;28;96819;-82
2021/07/09 01:41:10;;;;;;;9.98;6.45;;;;;;;21.49;76.22;100134.66;4908972;28;96881;-82
2021/07/09 01:43:35;;;;;;;9.05;6.65;;;;;;;21.59;75.64;100132.09;4913087;28;98075;-82
2021/07/09 01:46:01;;;;;;;12.13;7.00;;;;;;;21.46;75.85;100109.03;4896569;28;100945;-83
2021/07/09 01:48:27;;;;;;;7.78;6.28;;;;;;;21.58;75.75;100123.19;4921393;28;97295;-82
2021/07/09 01:50:53;;;;;;;7.10;5.90;;;;;;;21.60;76.06;100126.59;4911247;28;96860;-82
2021/07/09 01:53:18;;;;;;;7.10;6.22;;;;;;;21.62;75.77;100123.81;4907030;28;101750;-82
2021/07/09 01:55:44;;;;;;;7.47;6.10;;;;;;;21.56;75.35;100078.94;4917119;28;99524;-81
2021/07/09 01:58:10;;;;;;;7.95;6.40;;;;;;;21.66;75.50;100117.22;4907338;28;96766;-82
2021/07/09 02:00:36;;;;;;;7.60;6.45;;;;;;;21.59;75.64;100114.22;4921794;28;96910;-82
2021/07/09 02:03:02;;;;;;;7.75;6.57;;;;;;;21.59;75.84;100108.88;4887657;28;101324;-83
2021/07/09 02:05:28;;;;;;;8.38;6.22;;;;;;;21.51;75.93;100103.34;4899755;28;100930;-82
2021/07/09 02:07:55;;;;;;;7.15;6.32;;;;;;;21.64;75.48;100109.38;4899180;28;96823;-82
2021/07/09 02:10:23;;;;;;;8.38;6.78;;;;;;;21.62;75.81;100105.97;4929598;28;96853;-82
2021/07/09 02:12:52;;;;;;;9.43;7.32;;;;;;;21.61;75.44;100098.94;4902203;28;102041;-82
2021/07/09 02:15:18;;;;;;;7.13;5.90;;;;;;;21.56;75.63;100085.13;4904030;28;101307;-82
2021/07/09 02:17:44;;;;;;;7.72;6.38;;;;;;;21.60;75.66;100086.53;4935265;28;96724;-82
2021/07/09 02:20:13;;;;;;;8.98;5.60;;;;;;;21.64;75.51;100074.66;4931177;28;97060;-82
2021/07/09 02:22:39;;;;;;;7.95;6.28;;;;;;;21.53;76.02;100080.03;4889059;28;101856;-82
2021/07/09 02:25:05;;;;;;;8.35;5.40;;;;;;;21.66;75.90;100085.19;4914240;28;98140;-82
2021/07/09 02:27:39;;;;;;;9.40;6.18;;;;;;;21.58;75.79;100075.13;4907961;28;97253;-82
2021/07/09 02:30:10;;;;;;;9.85;6.50;;;;;;;21.86;74.82;100089.69;4921149;28;96795;-83
2021/07/09 02:32:36;;;;;;;7.60;5.85;;;;;;;21.56;75.45;100073.59;4914845;28;101273;-82
2021/07/09 02:35:04;;;;;;;8.40;7.00;;;;;;;21.66;75.45;100103.88;4916359;28;98605;-82
2021/07/09 02:37:29;;;;;;;8.05;6.57;;;;;;;21.61;74.98;100109.63;4894504;28;96764;-82
2021/07/09 02:39:55;;;;;;;9.43;6.55;;;;;;;21.52;75.47;100130.88;4914971;28;96890;-81
2021/07/09 02:42:20;;;;;;;10.32;6.35;;;;;;;21.50;75.21;100133.69;4906378;28;101591;-82
2021/07/09 02:44:46;;;;;;;7.68;5.30;;;;;;;21.46;75.37;100126.88;4916749;28;98394;-82
2021/07/09 02:47:12;;;;;;;8.68;5.32;;;;;;;21.39;75.78;100126.56;4893457;28;97611;-82
2021/07/09 02:49:38;;;;;;;7.65;5.82;;;;;;;21.35;76.19;100130.44;4900090;28;96961;-82
2021/07/09 02:52:04;;;;;;;10.23;5.97;;;;;;;21.30;75.93;100103.25;4913867;28;101202;-82
2021/07/09 02:54:29;;;;;;;8.15;5.97;;;;;;;21.21;76.68;100088.00;4915318;28;101265;-82
2021/07/09 02:56:55;;;;;;;8.02;6.55;;;;;;;21.29;76.45;100087.34;4908979;28;96847;-82
2021/07/09 02:59:21;;;;;;;9.90;6.47;;;;;;;21.35;76.19;100097.53;4901352;28;96944;-82
2021/07/09 03:01:46;;;;;;;10.40;6.72;;;;;;;21.22;75.98;100084.34;4933827;28;101395;-82
2021/07/09 03:04:13;;;;;;;10.38;6.65;;;;;;;21.36;76.06;100121.47;4932910;28;101474;-82
2021/07/09 03:06:39;;;;;;;7.85;6.13;;;;;;;21.31;76.40;100123.63;4933887;28;96787;-82
2021/07/09 03:09:09;;;;;;;7.78;6.95;;;;;;;21.45;76.23;100144.75;4917232;28;97050;-83
2021/07/09 03:11:35;;;;;;;9.27;6.25;;;;;;;21.40;75.72;100112.22;4917598;28;101431;-82
2021/07/09 03:14:02;;;;;;;10.88;7.28;;;;;;;21.35;76.23;100101.06;4947612;28;97888;-82
2021/07/09 03:16:28;;;;;;;7.55;6.50;;;;;;;21.45;76.61;100131.38;4900504;28;96756;-82
2021/07/09 03:18:53;;;;;;;10.63;7.80;;;;;;;21.52;76.24;100121.03;4917461;28;97032;-82
2021/07/09 03:21:19;;;;;;;9.98;6.47;;;;;;;21.40;75.91;100117.56;4949426;28;98581;-82
2021/07/09 03:23:45;;;;;;;11.57;6.88;;;;;;;21.64;75.54;100165.44;4911083;28;101532;-82
2021/07/09 03:26:11;;;;;;;9.48;6.38;;;;;;;21.70;75.68;100241.56;4897688;28;96752;-83
2021/07/09 03:28:36;;;;;;;9.65;7.63;;;;;;;21.57;75.70;100264.88;4913481;28;97497;-82
2021/07/09 03:31:02;;;;;;;9.27;7.35;;;;;;;21.62;75.78;100310.78;4894072;28;101283;-82
2021/07/09 03:33:28;;;;;;;8.63;6.78;;;;;;;21.46;75.61;100311.97;4900901;28;101414;-82
2021/07/09 03:35:53;;;;;;;9.63;7.20;;;;;;;21.59;75.79;100330.56;4949626;28;96724;-82
2021/07/09 03:38:20;;;;;;;8.82;5.93;;;;;;;21.53;75.98;100284.81;4916742;28;96966;-82
2021/07/09 03:40:46;;;;;;;8.88;6.93;;;;;;;21.46;75.95;100263.91;4904371;28;102047;-82
2021/07/09 03:43:11;;;;;;;10.75;6.55;;;;;;;21.49;75.85;100238.78;4910554;28;98113;-81
2021/07/09 03:45:37;;;;;;;9.38;6.75;;;;;;;21.54;76.03;100246.44;4913431;28;96647;-82
2021/07/09 03:48:04;;;;;;;10.88;9.30;;;;;;;21.59;75.90;100295.00;4914094;28;97085;-82
2021/07/09 03:50:29;;;;;;;13.95;9.32;;;;;;;21.41;76.07;100286.59;4909220;28;98001;-81
2021/07/09 03:52:55;;;;;;;13.45;8.07;;;;;;;21.55;76.18;100293.53;4897680;28;101421;-82
2021/07/09 03:55:20;;;;;;;12.90;5.35;;;;;;;21.51;75.85;100308.94;4889377;28;96682;-82
2021/07/09 03:57:46;;;;;;;12.50;5.10;;;;;;;21.38;75.93;100305.53;4932980;28;97177;-82
2021/07/09 04:00:14;;;;;;;5.97;4.90;;;;;;;21.45;75.81;100374.38;4900336;28;101960;-82
2021/07/09 04:02:42;;;;;;;8.80;3.33;;;;;;;21.31;76.04;100462.66;4933106;28;98678;-82
2021/07/09 04:05:09;;;;;;;6.72;3.42;;;;;;;21.31;76.09;100524.06;4931587;28;96763;-82
2021/07/09 04:07:35;;;;;;;8.10;3.58;;;;;;;21.14;76.99;100503.13;4932901;28;97012;-82
2021/07/09 04:10:01;;;;;;;6.50;2.80;;;;;;;21.01;77.56;100498.72;4904392;28;100076;-83
2021/07/09 04:12:26;;;;;;;4.75;2.40;;;;;;;20.87;78.01;100442.03;4912065;28;101134;-82
2021/07/09 04:14:52;;;;;;;8.30;2.25;;;;;;;20.80;77.71;100434.50;4912559;28;96855;-82
2021/07/09 04:17:17;;;;;;;3.85;1.70;;;;;;;20.78;77.58;100424.91;4912348;28;97003;-82
2021/07/09 04:19:43;;;;;;;3.67;2.00;;;;;;;20.78;77.82;100411.56;4913253;28;101190;-82
2021/07/09 04:22:08;;;;;;;4.97;2.10;;;;;;;20.78;77.59;100423.09;4913156;28;98444;-82
2021/07/09 04:24:34;;;;;;;5.45;2.13;;;;;;;20.81;78.02;100411.34;4912917;28;96788;-82
2021/07/09 04:27:00;;;;;;;4.15;1.88;;;;;;;20.86;77.64;100408.34;4926368;28;96900;-82
2021/07/09 04:29:25;;;;;;;4.93;1.77;;;;;;;20.75;77.51;100379.78;4895977;28;101811;-82
2021/07/09 04:31:51;;;;;;;5.72;1.88;;;;;;;20.84;77.47;100372.91;4913294;28;97486;-81
2021/07/09 04:34:16;;;;;;;1.98;1.58;;;;;;;20.79;77.50;100327.91;4905536;28;97162;-82
2021/07/09 04:36:43;;;;;;;3.50;1.70;;;;;;;20.79;77.10;100323.41;4932792;28;96799;-81
2021/07/09 04:39:09;;;;;;;2.50;1.63;;;;;;;20.89;77.34;100306.72;4904129;28;98635;-82
2021/07/09 04:41:34;;;;;;;7.13;1.70;;;;;;;20.81;76.87;100275.28;4919298;28;101640;-82
2021/07/09 04:44:00;;;;;;;3.83;1.60;;;;;;;20.69;76.86;100277.09;4915949;28;96693;-81
2021/07/09 04:46:26;;;;;;;7.85;1.55;;;;;;;20.88;76.96;100289.84;4899654;28;96986;-82
2021/07/09 04:48:52;;;;;;;2.47;1.30;;;;;;;20.94;76.56;100276.03;4904277;28;101588;-82
2021/07/09 04:51:17;;;;;;;4.50;1.13;;;;;;;20.94;76.38;100251.16;4910864;28;101203;-82
2021/07/09 04:53:43;;;;;;;3.95;1.33;;;;;;;20.91;76.48;100204.22;4903283;28;96711;-81
2021/07/09 04:56:09;;;;;;;3.38;1.52;;;;;;;20.89;76.30;100200.84;4908367;28;97107;-81
2021/07/09 04:58:34;;;;;;;4.47;1.50;;;;;;;20.80;75.80;100194.44;4923904;28;100735;-81
2021/07/09 05:01:00;;;;;;;4.18;1.80;;;;;;;20.91;76.24;100238.06;4916076;28;98338;-81
2021/07/09 05:03:25;;;;;;;3.03;1.67;;;;;;;20.88;75.67;100232.97;4903568;28;96808;-82
2021/07/09 05:05:51;;;;;;;1.40;1.30;;;;;;;20.88;75.79;100257.81;4896799;28;97376;-81
2021/07/09 05:08:17;;;;;;;4.15;1.83;;;;;;;20.83;76.07;100268.03;4912267;28;98194;-82
2021/07/09 05:10:42;;;;;;;2.55;1.88;;;;;;;20.80;76.12;100199.75;4911231;28;101699;-81
2021/07/09 05:13:08;;;;;;;3.80;1.88;;;;;;;20.88;76.24;100179.63;4904704;28;96701;-81
2021/07/09 05:15:34;;;;;;;2.03;1.45;;;;;;;20.84;76.02;100084.81;4923001;28;97253;-81
2021/07/09 05:18:00;;;;;;;3.20;1.80;;;;;;;20.88;75.78;100079.09;4883550;28;101448;-78
2021/07/09 05:20:26;;;;;;;2.10;1.23;;;;;;;20.67;74.75;100012.34;4909296;28;101226;-78
2021/07/09 05:22:51;;;;;;;2.13;1.38;;;;;;;20.60;75.36;100013.81;4913641;28;97322;-78
2021/07/09 05:25:17;;;;;;;3.20;1.42;;;;;;;20.64;75.25;100025.91;4912577;28;98199;-78
2021/07/09 05:27:43;;;;;;;2.13;1.40;;;;;;;20.59;75.02;100033.44;4897097;28;101371;-77
2021/07/09 05:30:09;;;;;;;4.05;1.50;;;;;;;20.64;75.33;100087.25;4912819;28;98299;-78
2021/07/09 05:32:35;;;;;;;4.07;1.67;;;;;;;20.67;75.23;100121.66;4912681;28;96824;-77
2021/07/09 05:35:00;;;;;;;3.35;1.40;;;;;;;20.59;74.97;100145.41;4913091;28;97352;-77
2021/07/09 05:37:27;;;;;;;2.80;1.25;;;;;;;20.42;75.72;100143.19;4896288;28;100913;-78
2021/07/09 05:39:52;;;;;;;1.73;1.50;;;;;;;20.52;75.44;100131.72;4910744;28;97948;-78
2021/07/09 05:42:18;;;;;;;3.67;1.75;;;;;;;20.57;75.64;100126.06;4903515;28;97058;-78
2021/07/09 05:44:44;;;;;;;4.82;2.90;;;;;;;20.61;76.05;100131.97;4911189;28;96810;-78
2021/07/09 05:47:11;;;;;;;2.55;1.40;;;;;;;20.74;75.32;100162.03;4896562;28;97686;-78
2021/07/09 05:49:37;;;;;;;4.20;1.55;;;;;;;20.80;75.31;100193.59;4896624;28;101383;-78
2021/07/09 05:52:03;;;;;;;3.53;1.77;;;;;;;20.58;76.08;100200.56;4888964;28;97388;-78
2021/07/09 05:54:28;;;;;;;4.15;1.83;;;;;;;20.56;76.27;100180.31;4929843;28;96845;-78
2021/07/09 05:56:54;;;;;;;2.70;1.45;;;;;;;20.54;76.37;100128.97;4915866;28;101690;-78
2021/07/09 05:59:19;;;;;;;6.90;1.80;;;;;;;20.62;76.74;100120.34;4931737;28;97956;-78
2021/07/09 06:01:45;;;;;;;2.75;1.95;;;;;;;20.66;76.57;100066.66;4932662;28;97382;-78
2021/07/09 06:04:11;;;;;;;2.25;1.40;;;;;;;20.61;76.36;99924.00;4897581;28;96990;-78
2021/07/09 06:06:37;;;;;;;3.00;2.00;;;;;;;20.62;76.33;99878.53;4911659;28;98016;-78
2021/07/09 06:09:03;;;;;;;6.50;1.70;;;;;;;20.50;76.06;99868.84;4911033;28;98361;-78
2021/07/09 06:11:30;;;;;;;3.30;1.70;;;;;;;20.54;76.24;99871.19;4912767;28;96877;-81
2021/07/09 06:13:56;;;;;;;5.78;1.98;;;;;;;20.58;75.87;99888.59;4903937;28;96817;-82
2021/07/09 06:16:22;;;;;;;7.93;1.60;;;;;;;20.44;75.62;99864.88;4907375;28;101513;-80
2021/07/09 06:18:48;;;;;;;3.28;1.40;;;;;;;20.79;75.40;99923.31;4902474;28;101392;-80
2021/07/09 06:21:13;;;;;;;3.60;1.63;;;;;;;20.88;75.06;99982.22;4913406;28;96764;-82
2021/07/09 06:23:39;;;;;;;3.63;1.50;;;;;;;20.86;75.49;100062.38;4898196;28;96979;-81
2021/07/09 06:26:04;;;;;;;5.68;1.67;;;;;;;20.95;75.18;100127.47;4908076;28;101455;-81
2021/07/09 06:28:30;;;;;;;4.50;1.80;;;;;;;20.94;75.57;100157.78;4900406;28;101126;-80
2021/07/09 06:30:55;;;;;;;7.13;1.77;;;;;;;20.96;75.25;100162.03;4906062;28;97243;-81
2021/07/09 06:33:21;;;;;;;4.90;1.70;;;;;;;20.95;75.59;100176.34;4897799;28;96990;-80
2021/07/09 06:35:47;;;;;;;3.65;1.60;;;;;;;20.88;75.59;100167.13;4916695;28;101644;-82
2021/07/09 06:38:12;;;;;;;2.25;1.58;;;;;;;20.91;75.39;100144.69;4912829;28;101522;-80
2021/07/09 06:40:38;;;;;;;3.83;1.45;;;;;;;20.77;75.45;100144.00;4893303;28;96964;-81
2021/07/09 06:43:04;;;;;;;5.35;1.75;;;;;;;20.83;75.88;100131.09;4927695;28;96947;-79
2021/07/09 06:45:30;;;;;;;2.60;1.55;;;;;;;20.74;76.42;100087.34;4916196;28;98494;-80
2021/07/09 06:47:56;;;;;;;4.07;1.52;;;;;;;20.77;76.50;100039.97;4898669;28;100860;-81
2021/07/09 06:50:21;;;;;;;3.53;1.52;;;;;;;20.70;77.02;100027.25;4880992;28;96776;-81
2021/07/09 06:52:47;;;;;;;2.67;2.05;;;;;;;20.76;76.82;100038.25;4909855;28;97203;-82
2021/07/09 06:55:14;;;;;;;8.48;2.50;;;;;;;20.93;75.87;100052.91;4912312;28;97997;-80
2021/07/09 06:57:45;;;;;;;3.38;1.70;;;;;;;20.78;76.43;100025.66;4898024;28;101097;-79
2021/07/09 07:00:12;;;;;;;4.97;1.88;;;;;;;20.79;76.91;100014.00;4914080;28;96857;-81
2021/07/09 07:02:37;;;;;;;6.10;2.22;;;;;;;20.63;76.92;99978.91;4918013;28;97356;-80
2021/07/09 07:05:03;;;;;;;5.43;2.15;;;;;;;20.79;76.43;99991.81;4920194;28;98290;-80
2021/07/09 07:07:29;;;;;;;7.03;2.30;;;;;;;20.94;76.45;100075.94;4910922;28;102007;-80
2021/07/09 07:09:54;;;;;;;6.70;2.38;;;;;;;20.89;76.62;100109.31;4897090;28;97054;-79
2021/07/09 07:12:20;;;;;;;6.38;2.22;;;;;;;20.66;76.95;100100.47;4926225;28;96902;-80
2021/07/09 07:14:45;;;;;;;4.22;2.20;;;;;;;20.58;77.48;100066.41;4891507;28;101619;-80
2021/07/09 07:17:11;;;;;;;6.90;1.83;;;;;;;20.38;77.26;99973.81;4907229;28;98142;-81
2021/07/09 07:19:36;;;;;;;5.32;1.83;;;;;;;20.64;77.26;100039.25;4896021;28;97369;-78
2021/07/09 07:22:03;;;;;;;4.82;2.10;;;;;;;20.67;76.94;100088.81;4926033;28;96887;-80
2021/07/09 07:24:29;;;;;;;4.10;2.10;;;;;;;20.62;76.93;100081.19;4922859;28;97961;-79
2021/07/09 07:26:57;;;;;;;5.93;2.10;;;;;;;20.65;77.36;100114.75;4928254;28;98421;-80
2021/07/09 07:29:23;;;;;;;3.22;2.10;;;;;;;20.65;77.08;100125.44;4913786;28;97251;-79
2021/07/09 07:31:49;;;;;;;4.15;2.17;;;;;;;20.73;76.91;100129.19;4898660;28;97605;-80
2021/07/09 07:34:15;;;;;;;4.65;1.95;;;;;;;20.83;76.63;100144.44;4881238;28;101286;-79
2021/07/09 07:36:41;;;;;;;3.08;2.63;;;;;;;20.54;76.83;100132.47;4909961;28;101530;-79
2021/07/09 07:39:07;;;;;;;4.03;2.20;;;;;;;20.74;76.73;100164.69;4902648;28;97408;-79
2021/07/09 07:41:32;;;;;;;3.47;2.40;;;;;;;20.77;76.95;100148.47;4891795;28;97189;-78
2021/07/09 07:43:58;;;;;;;2.45;1.88;;;;;;;20.80;75.88;100132.22;4907552;28;98616;-79
2021/07/09 07:46:25;;;;;;;5.97;2.08;;;;;;;20.56;76.38;100071.00;4898694;28;101493;-79
2021/07/09 07:48:51;;;;;;;4.85;2.85;;;;;;;20.53;75.86;100068.59;4912515;28;96785;-80
2021/07/09 07:51:17;;;;;;;6.55;2.60;;;;;;;20.68;75.81;100086.06;4901181;28;97212;-81
2021/07/09 07:53:42;;;;;;;3.10;2.17;;;;;;;20.62;76.04;100096.34;4919697;28;101162;-80
2021/07/09 07:56:08;;;;;;;6.13;2.55;;;;;;;20.70;75.84;100133.91;4917040;28;98285;-81
2021/07/09 07:58:35;;;;;;;10.38;3.70;;;;;;;20.64;76.15;100137.06;4915127;28;96758;-79
2021/07/09 08:01:01;;;;;;;7.05;3.03;;;;;;;20.76;75.93;100125.44;4915759;28;97400;-80
2021/07/09 08:03:26;;;;;;;3.90;2.85;;;;;;;20.63;76.40;100090.91;4939615;28;97534;-80
2021/07/09 08:05:52;;;;;;;5.07;3.00;;;;;;;20.64;76.98;100100.59;4886097;28;101622;-79
2021/07/09 08:08:17;;;;;;;7.80;3.35;;;;;;;20.64;76.98;100092.59;4922756;28;96753;-80
2021/07/09 08:10:43;;;;;;;7.78;3.97;;;;;;;20.60;77.86;100087.63;4906152;28;97019;-81
2021/07/09 08:13:09;;;;;;;4.68;3.88;;;;;;;20.82;76.17;100140.09;4918004;28;98181;-79
2021/07/09 08:15:34;;;;;;;7.15;3.30;;;;;;;20.95;75.25;100120.31;4903870;28;101357;-80
2021/07/09 08:18:00;;;;;;;5.50;3.28;;;;;;;20.71;76.07;100119.59;4894158;28;96645;-80
2021/07/09 08:20:28;;;;;;;6.95;4.07;;;;;;;20.86;75.90;100145.06;4923341;28;96927;-80
2021/07/09 08:22:53;;;;;;;6.07;3.20;;;;;;;20.84;76.28;100141.66;4906632;28;97792;-80
2021/07/09 08:25:19;;;;;;;4.65;3.13;;;;;;;20.81;76.20;100133.91;4902873;28;98987;-80
2021/07/09 08:27:45;;;;;;;5.88;3.15;;;;;;;20.75;76.61;100123.75;4900244;28;96765;-79
2021/07/09 08:30:11;;;;;;;8.52;3.63;;;;;;;20.74;76.91;100138.91;4901966;28;98221;-79
2021/07/09 08:32:37;;;;;;;4.30;3.00;;;;;;;20.74;76.80;100149.56;4927937;28;98645;-79
2021/07/09 08:35:03;;;;;;;5.50;3.47;;;;;;;20.82;76.46;100132.94;4894071;28;101057;-80
2021/07/09 08:37:29;;;;;;;8.25;3.53;;;;;;;20.81;76.72;100136.59;4902073;28;96768;-79
2021/07/09 08:39:55;;;;;;;5.90;3.63;;;;;;;20.72;77.25;100140.81;4928064;28;97147;-79
2021/07/09 08:42:20;;;;;;;6.07;3.38;;;;;;;20.78;76.96;100160.84;4913080;28;101802;-79
2021/07/09 08:44:46;;;;;;;9.13;4.50;;;;;;;20.78;77.01;100188.34;4929566;28;98556;-79
2021/07/09 08:47:12;;;;;;;6.72;3.50;;;;;;;20.78;77.09;100183.00;4927698;28;97252;-79
2021/07/09 08:49:40;;;;;;;7.63;3.63;;;;;;;20.72;77.07;100174.66;4917864;28;96931;-79
2021/07/09 08:52:06;;;;;;;4.35;3.22;;;;;;;20.66;77.07;100157.31;4917924;28;100456;-79
2021/07/09 08:54:32;;;;;;;8.23;3.70;;;;;;;20.77;77.22;100173.31;4909817;28;100790;-80
2021/07/09 08:56:57;;;;;;;10.27;3.90;;;;;;;20.89;76.69;100135.97;4909831;28;96826;-79
2021/07/09 08:59:23;;;;;;;5.35;3.28;;;;;;;20.89;76.71;100136.81;4901906;28;97508;-83
2021/07/09 09:01:48;;;;;;;6.65;3.47;;;;;;;21.01;76.89;100175.84;4922428;28;98562;-81
2021/07/09 09:04:14;;;;;;;9.75;3.97;;;;;;;21.09;76.20;100172.59;4919528;28;98532;-82
2021/07/09 09:06:40;;;;;;;7.88;3.80;;;;;;;20.97;76.67;100179.75;4914267;28;98229;-78
2021/07/09 09:09:16;;;;;;;9.10;3.10;;;;;;;20.97;76.81;100205.56;4899425;28;97032;-81
2021/07/09 09:12:10;;;;;;;4.95;3.58;;;;;;;20.87;76.97;100248.13;4917924;28;100436;-82
2021/07/09 09:14:41;;;;;;;6.53;3.90;;;;;;;20.70;77.58;100204.09;4908012;28;101680;-78
2021/07/09 09:17:28;;;;;;;6.22;3.70;;;;;;;20.68;78.01;100176.72;4890853;28;98530;-80
2021/07/09 09:20:11;;;;;;;6.72;3.63;;;;;;;20.72;77.62;100167.50;4925517;28;96912;-80
2021/07/09 09:22:58;;;;;;;8.18;4.40;;;;;;;20.75;77.56;100179.75;4921028;28;98463;-80
2021/07/09 09:25:25;;;;;;;5.25;3.38;;;;;;;20.81;77.53;100189.94;4900317;28;100523;-79
2021/07/09 09:28:06;;;;;;;6.13;4.30;;;;;;;20.88;76.92;100241.81;4908296;28;96578;-78
2021/07/09 09:30:33;;;;;;;8.77;3.85;;;;;;;20.74;77.37;100224.25;4908665;28;98234;-79
2021/07/09 09:33:01;;;;;;;8.05;3.83;;;;;;;20.69;77.51;100214.91;4891748;28;101828;-79
2021/07/09 09:35:37;;;;;;;8.73;4.47;;;;;;;20.56;78.00;100261.16;4898580;28;101258;-83
2021/07/09 09:38:08;;;;;;;5.85;3.63;;;;;;;20.38;78.70;100227.03;4911769;28;96952;-82
2021/07/09 09:40:34;;;;;;;;;;;;;;;20.45;78.38;100246.91;4906733;28;96755;-84
2021/07/09 09:43:06;;;;;;;6.68;3.47;;;;;;;20.52;77.90;100245.50;4885975;28;101568;-78
2021/07/09 09:45:32;;;;;;;7.35;3.88;;;;;;;20.58;77.99;100229.06;4915376;28;101572;-77
2021/07/09 09:48:05;;;;;;;13.63;4.15;;;;;;;20.51;77.87;100222.47;4922993;28;97390;-77
2021/07/09 09:50:31;;;;;;;6.28;4.03;;;;;;;20.35;77.87;100239.63;4916708;28;97453;-78
2021/07/09 09:52:56;;;;;;;8.13;4.13;;;;;;;20.43;77.71;100257.72;4900168;28;97983;-77
2021/07/09 09:55:31;;;;;;;5.15;3.33;;;;;;;20.19;78.74;100223.13;4908159;28;101929;-76
2021/07/09 09:58:15;;;;;;;6.78;3.83;;;;;;;20.34;78.34;100261.94;4900081;28;97227;-78
2021/07/09 10:00:43;;;;;;;5.10;3.28;;;;;;;20.41;77.74;100258.81;4913108;28;97615;-77
2021/07/09 10:03:09;;;;;;;6.88;3.60;;;;;;;20.28;77.85;100229.56;4900193;28;101435;-76
2021/07/09 10:05:45;;;;;;;6.53;3.08;;;;;;;20.36;77.87;100221.81;4919067;28;97959;-81
2021/07/09 10:08:13;;;;;;;6.28;2.70;;;;;;;20.37;77.62;100202.22;4922899;28;96761;-76
2021/07/09 10:10:43;;;;;;;6.47;3.53;;;;;;;20.69;76.71;100223.75;4918139;28;97258;-76
2021/07/09 10:13:12;;;;;;;8.88;3.95;;;;;;;20.77;76.83;100229.34;4918993;28;98254;-76
2021/07/09 10:15:40;;;;;;;5.78;3.17;;;;;;;21.02;75.49;100246.91;4931063;28;98142;-77
2021/07/09 10:18:12;;;;;;;6.72;2.60;;;;;;;21.17;75.20;100220.00;4903845;28;96762;-77
2021/07/09 10:20:39;;;;;;;6.95;3.60;;;;;;;21.39;75.50;100221.84;4920616;28;97322;-88
2021/07/09 10:23:05;;;;;;;4.80;3.22;;;;;;;21.57;74.59;100190.09;4904619;28;101605;-87
2021/07/09 10:25:31;;;;;;;9.35;2.95;;;;;;;21.63;74.28;100163.72;4921871;28;100721;-88
2021/07/09 10:27:57;;;;;;;7.40;2.90;;;;;;;21.83;74.25;100195.97;4918279;28;97192;-87
2021/07/09 10:30:34;;;;;;;8.60;3.28;;;;;;;21.78;74.39;100187.47;4919965;28;96815;-85
2021/07/09 10:33:00;;;;;;;5.57;2.85;;;;;;;;;;4899505;28;100015;-85
2021/07/09 10:35:33;;;;;;;5.45;2.90;;;;;;;21.78;73.84;100192.81;4926528;28;101170;-86
2021/07/09 10:38:08;;;;;;;4.78;3.10;;;;;;;21.55;74.54;100192.88;4914232;28;97336;-87
2021/07/09 10:40:34;;;;;;;6.65;3.30;;;;;;;21.20;74.86;100166.38;4933890;28;97042;-89
2021/07/09 10:43:00;;;;;;;7.20;3.53;;;;;;;21.28;75.53;100173.75;4925122;28;99000;-86
2021/07/09 10:45:27;;;;;;;5.88;3.85;;;;;;;21.23;75.94;100167.00;4926443;28;100295;-88
2021/07/09 10:48:16;;;;;;;5.47;3.45;;;;;;;21.32;75.54;100167.19;4909194;28;96724;-87
2021/07/09 10:50:46;;;;;;;6.43;3.63;;;;;;;21.45;75.31;100170.59;4921028;28;96927;-86
2021/07/09 10:53:11;;;;;;;7.85;4.03;;;;;;;21.48;75.39;100189.88;4912740;28;98667;-87
2021/07/09 10:55:51;;;;;;;8.23;4.32;;;;;;;21.58;76.12;100194.47;4936386;28;98357;-87
2021/07/09 10:58:28;;;;;;;6.57;3.97;;;;;;;21.61;75.89;100191.53;4896668;28;96797;-86
2021/07/09 11:01:10;;;;;;;6.10;4.22;;;;;;;21.88;75.56;100199.13;4939032;28;98099;-88
2021/07/09 11:03:50;;;;;;;7.65;3.95;;;;;;;21.99;74.41;100192.84;4911400;28;101808;-87
2021/07/09 11:06:17;;;;;;;9.05;4.20;;;;;;;22.21;74.91;100190.09;4909354;28;101371;-78
2021/07/09 11:08:53;;;;;;;8.23;3.78;;;;;;;22.64;73.73;100161.50;4907065;28;96781;-88
2021/07/09 11:11:28;;;;;;;8.10;4.22;;;;;;;22.98;72.30;100159.41;4930304;28;96765;-87
2021/07/09 11:13:56;;;;;;;8.38;4.55;;;;;;;22.90;72.11;100125.28;4936550;28;101924;-88
2021/07/09 11:16:30;;;;;;;6.63;4.00;;;;;;;23.25;71.05;100146.25;4921888;28;98671;-87
2021/07/09 11:19:03;;;;;;;7.35;4.20;;;;;;;23.41;70.33;100156.41;4933268;28;96688;-88
2021/07/09 11:21:29;;;;;;;5.25;3.50;;;;;;;23.21;70.67;100165.41;4922538;28;96844;-88
2021/07/09 11:23:55;;;;;;;7.30;3.80;;;;;;;23.00;71.24;100165.47;4933616;28;97821;-88